sensor_id;sensor_type;location;lat;lon;timestamp;temperature;humidity
59208;DHT22;44977;53.132;6.408;2023-05-20T00:00:19;11.60;99.90
59208;DHT22;44977;53.132;6.408;2023-05-20T00:05:20;11.60;99.90
59208;DHT22;44977;53.132;6.408;2023-05-20T00:10:20;11.50;99.90
59208;DHT22;44977;53.132;6.408;2023-05-20T00:15:21;11.50;99.90
59208;DHT22;44977;53.132;6.408;2023-05-20T00:20:22;11.50;99.90
59208;DHT22;44977;53.132;6.408;2023-05-20T00:25:22;11.40;99.90
59208;DHT22;44977;53.132;6.408;2023-05-20T00:30:23;11.40;99.90
59208;DHT22;44977;53.132;6.408;2023-05-20T00:35:24;11.30;99.90
59208;DHT22;44977;53.132;6.408;2023-05-20T00:40:24;11.30;99.90
59208;DHT22;44977;53.132;6.408;2023-05-20T00:45:25;11.20;99.90
59208;DHT22;44977;53.132;6.408;2023-05-20T00:50:26;11.20;99.90
59208;DHT22;44977;53.132;6.408;2023-05-20T00:55:27;11.10;99.90
59208;DHT22;44977;53.132;6.408;2023-05-20T01:00:28;11.20;99.90
59208;DHT22;44977;53.132;6.408;2023-05-20T01:05:29;11.10;99.90
59208;DHT22;44977;53.132;6.408;2023-05-20T01:10:30;11.00;99.90
59208;DHT22;44977;53.132;6.408;2023-05-20T01:15:31;11.00;99.90
59208;DHT22;44977;53.132;6.408;2023-05-20T01:20:32;10.90;99.90
59208;DHT22;44977;53.132;6.408;2023-05-20T01:25:33;10.90;99.90
59208;DHT22;44977;53.132;6.408;2023-05-20T01:30:37;10.90;99.90
59208;DHT22;44977;53.132;6.408;2023-05-20T01:35:40;10.80;99.90
59208;DHT22;44977;53.132;6.408;2023-05-20T01:40:42;10.80;99.90
59208;DHT22;44977;53.132;6.408;2023-05-20T01:45:43;10.80;99.90
59208;DHT22;44977;53.132;6.408;2023-05-20T01:50:44;10.70;99.90
59208;DHT22;44977;53.132;6.408;2023-05-20T01:55:45;10.70;99.90
59208;DHT22;44977;53.132;6.408;2023-05-20T02:00:46;10.70;99.90
59208;DHT22;44977;53.132;6.408;2023-05-20T02:05:46;10.70;99.90
59208;DHT22;44977;53.132;6.408;2023-05-20T02:10:47;10.60;99.90
59208;DHT22;44977;53.132;6.408;2023-05-20T02:15:49;10.60;99.90
59208;DHT22;44977;53.132;6.408;2023-05-20T02:20:51;10.50;99.90
59208;DHT22;44977;53.132;6.408;2023-05-20T02:25:51;10.50;99.90
59208;DHT22;44977;53.132;6.408;2023-05-20T02:30:52;10.40;99.90
59208;DHT22;44977;53.132;6.408;2023-05-20T02:35:53;10.40;99.90
59208;DHT22;44977;53.132;6.408;2023-05-20T02:40:55;10.40;99.90
59208;DHT22;44977;53.132;6.408;2023-05-20T02:45:56;10.30;99.90
59208;DHT22;44977;53.132;6.408;2023-05-20T02:50:58;10.30;99.90
59208;DHT22;44977;53.132;6.408;2023-05-20T02:55:58;10.30;99.90
59208;DHT22;44977;53.132;6.408;2023-05-20T03:00:59;10.30;99.90
59208;DHT22;44977;53.132;6.408;2023-05-20T03:06:00;10.30;99.90
59208;DHT22;44977;53.132;6.408;2023-05-20T03:11:01;10.20;99.90
59208;DHT22;44977;53.132;6.408;2023-05-20T03:16:01;10.20;99.90
59208;DHT22;44977;53.132;6.408;2023-05-20T03:21:02;10.20;99.90
59208;DHT22;44977;53.132;6.408;2023-05-20T03:26:03;10.20;99.90
59208;DHT22;44977;53.132;6.408;2023-05-20T03:31:06;10.10;99.90
59208;DHT22;44977;53.132;6.408;2023-05-20T03:36:06;10.10;99.90
59208;DHT22;44977;53.132;6.408;2023-05-20T03:41:07;10.10;99.90
59208;DHT22;44977;53.132;6.408;2023-05-20T03:46:08;10.10;99.90
59208;DHT22;44977;53.132;6.408;2023-05-20T03:51:09;10.00;99.90
59208;DHT22;44977;53.132;6.408;2023-05-20T03:56:10;10.00;99.90
59208;DHT22;44977;53.132;6.408;2023-05-20T04:01:10;10.00;99.90
59208;DHT22;44977;53.132;6.408;2023-05-20T04:06:14;10.00;99.90
59208;DHT22;44977;53.132;6.408;2023-05-20T04:11:15;10.00;99.90
59208;DHT22;44977;53.132;6.408;2023-05-20T04:16:16;10.00;99.90
59208;DHT22;44977;53.132;6.408;2023-05-20T04:21:17;10.00;99.90
59208;DHT22;44977;53.132;6.408;2023-05-20T04:26:18;10.00;99.90
59208;DHT22;44977;53.132;6.408;2023-05-20T04:31:20;10.00;99.90
59208;DHT22;44977;53.132;6.408;2023-05-20T04:36:26;10.10;99.90
59208;DHT22;44977;53.132;6.408;2023-05-20T04:41:30;10.10;99.90
59208;DHT22;44977;53.132;6.408;2023-05-20T04:46:30;10.20;99.90
59208;DHT22;44977;53.132;6.408;2023-05-20T04:51:33;10.20;99.90
59208;DHT22;44977;53.132;6.408;2023-05-20T04:56:34;10.30;99.90
59208;DHT22;44977;53.132;6.408;2023-05-20T05:01:36;10.40;99.90
59208;DHT22;44977;53.132;6.408;2023-05-20T05:06:36;10.50;99.90
59208;DHT22;44977;53.132;6.408;2023-05-20T05:11:37;10.60;99.90
59208;DHT22;44977;53.132;6.408;2023-05-20T05:16:38;10.80;99.90
59208;DHT22;44977;53.132;6.408;2023-05-20T05:21:39;10.90;99.90
59208;DHT22;44977;53.132;6.408;2023-05-20T05:26:39;10.90;99.90
59208;DHT22;44977;53.132;6.408;2023-05-20T05:31:40;11.00;99.90
59208;DHT22;44977;53.132;6.408;2023-05-20T05:36:41;11.10;99.90
59208;DHT22;44977;53.132;6.408;2023-05-20T05:41:41;11.20;99.90
59208;DHT22;44977;53.132;6.408;2023-05-20T05:46:42;11.20;99.90
59208;DHT22;44977;53.132;6.408;2023-05-20T05:51:43;11.40;99.90
59208;DHT22;44977;53.132;6.408;2023-05-20T05:56:43;11.50;99.90
59208;DHT22;44977;53.132;6.408;2023-05-20T06:01:44;11.60;99.90
59208;DHT22;44977;53.132;6.408;2023-05-20T06:06:47;11.90;99.90
59208;DHT22;44977;53.132;6.408;2023-05-20T06:11:47;12.10;99.90
59208;DHT22;44977;53.132;6.408;2023-05-20T06:16:48;12.40;99.90
59208;DHT22;44977;53.132;6.408;2023-05-20T06:21:48;12.70;99.90
59208;DHT22;44977;53.132;6.408;2023-05-20T06:26:49;12.90;99.90
59208;DHT22;44977;53.132;6.408;2023-05-20T06:31:50;13.20;99.90
59208;DHT22;44977;53.132;6.408;2023-05-20T06:36:51;13.40;99.90
59208;DHT22;44977;53.132;6.408;2023-05-20T06:41:52;13.60;99.90
59208;DHT22;44977;53.132;6.408;2023-05-20T06:46:53;13.80;99.90
59208;DHT22;44977;53.132;6.408;2023-05-20T06:51:53;14.00;99.90
59208;DHT22;44977;53.132;6.408;2023-05-20T06:56:54;14.20;99.90
59208;DHT22;44977;53.132;6.408;2023-05-20T07:01:55;14.40;99.90
59208;DHT22;44977;53.132;6.408;2023-05-20T07:06:55;14.70;99.90
59208;DHT22;44977;53.132;6.408;2023-05-20T07:11:56;14.90;99.90
59208;DHT22;44977;53.132;6.408;2023-05-20T07:16:57;15.10;99.90
59208;DHT22;44977;53.132;6.408;2023-05-20T07:21:58;15.30;99.90
59208;DHT22;44977;53.132;6.408;2023-05-20T07:26:58;15.60;99.90
59208;DHT22;44977;53.132;6.408;2023-05-20T07:31:59;15.80;99.90
59208;DHT22;44977;53.132;6.408;2023-05-20T07:37:00;16.00;99.90
59208;DHT22;44977;53.132;6.408;2023-05-20T07:42:01;16.10;99.90
59208;DHT22;44977;53.132;6.408;2023-05-20T07:47:02;16.30;99.90
59208;DHT22;44977;53.132;6.408;2023-05-20T07:52:02;16.50;99.40
59208;DHT22;44977;53.132;6.408;2023-05-20T07:57:03;16.70;97.40
59208;DHT22;44977;53.132;6.408;2023-05-20T08:02:04;16.90;97.10
59208;DHT22;44977;53.132;6.408;2023-05-20T08:07:05;17.10;96.60
59208;DHT22;44977;53.132;6.408;2023-05-20T08:12:06;17.30;95.50
59208;DHT22;44977;53.132;6.408;2023-05-20T08:17:07;17.50;94.60
59208;DHT22;44977;53.132;6.408;2023-05-20T08:22:07;17.70;93.60
59208;DHT22;44977;53.132;6.408;2023-05-20T08:27:08;17.90;92.40
59208;DHT22;44977;53.132;6.408;2023-05-20T08:32:09;18.00;91.40
59208;DHT22;44977;53.132;6.408;2023-05-20T08:37:10;18.30;91.70
59208;DHT22;44977;53.132;6.408;2023-05-20T08:42:11;18.50;91.40
59208;DHT22;44977;53.132;6.408;2023-05-20T08:47:13;18.60;90.10
59208;DHT22;44977;53.132;6.408;2023-05-20T08:52:16;18.80;90.80
59208;DHT22;44977;53.132;6.408;2023-05-20T08:57:17;19.00;89.90
59208;DHT22;44977;53.132;6.408;2023-05-20T09:02:19;19.20;87.90
59208;DHT22;44977;53.132;6.408;2023-05-20T09:07:27;19.40;87.80
59208;DHT22;44977;53.132;6.408;2023-05-20T09:12:28;19.60;85.70
59208;DHT22;44977;53.132;6.408;2023-05-20T09:17:29;19.60;81.00
59208;DHT22;44977;53.132;6.408;2023-05-20T09:22:30;19.80;82.20
59208;DHT22;44977;53.132;6.408;2023-05-20T09:27:30;19.90;81.40
59208;DHT22;44977;53.132;6.408;2023-05-20T09:32:32;20.00;82.90
59208;DHT22;44977;53.132;6.408;2023-05-20T09:37:33;20.30;80.20
59208;DHT22;44977;53.132;6.408;2023-05-20T09:42:43;20.50;79.40
59208;DHT22;44977;53.132;6.408;2023-05-20T09:47:46;20.60;79.30
59208;DHT22;44977;53.132;6.408;2023-05-20T09:52:48;20.70;76.60
59208;DHT22;44977;53.132;6.408;2023-05-20T09:57:49;20.80;77.30
59208;DHT22;44977;53.132;6.408;2023-05-20T10:02:51;20.80;75.40
59208;DHT22;44977;53.132;6.408;2023-05-20T10:08:14;20.90;74.30
59208;DHT22;44977;53.132;6.408;2023-05-20T10:13:55;21.10;75.50
59208;DHT22;44977;53.132;6.408;2023-05-20T10:19:07;21.20;71.90
59208;DHT22;44977;53.132;6.408;2023-05-20T10:24:11;21.10;71.20
59208;DHT22;44977;53.132;6.408;2023-05-20T10:29:16;21.00;70.90
59208;DHT22;44977;53.132;6.408;2023-05-20T10:34:18;21.00;71.00
59208;DHT22;44977;53.132;6.408;2023-05-20T10:39:26;21.00;68.70
59208;DHT22;44977;53.132;6.408;2023-05-20T10:44:27;21.00;70.00
59208;DHT22;44977;53.132;6.408;2023-05-20T10:49:43;21.10;70.50
59208;DHT22;44977;53.132;6.408;2023-05-20T10:54:56;21.10;68.80
59208;DHT22;44977;53.132;6.408;2023-05-20T10:59:57;21.30;68.20
59208;DHT22;44977;53.132;6.408;2023-05-20T11:04:59;21.40;71.00
59208;DHT22;44977;53.132;6.408;2023-05-20T11:10:00;21.60;67.40
59208;DHT22;44977;53.132;6.408;2023-05-20T11:15:02;21.70;67.50
59208;DHT22;44977;53.132;6.408;2023-05-20T11:20:03;21.50;64.30
59208;DHT22;44977;53.132;6.408;2023-05-20T11:25:04;21.50;64.70
59208;DHT22;44977;53.132;6.408;2023-05-20T11:30:07;21.40;64.60
59208;DHT22;44977;53.132;6.408;2023-05-20T11:35:20;21.40;71.10
59208;DHT22;44977;53.132;6.408;2023-05-20T11:40:25;21.60;69.20
59208;DHT22;44977;53.132;6.408;2023-05-20T11:45:37;21.70;71.50
59208;DHT22;44977;53.132;6.408;2023-05-20T11:50:39;22.00;73.30
59208;DHT22;44977;53.132;6.408;2023-05-20T11:55:52;21.80;71.70
59208;DHT22;44977;53.132;6.408;2023-05-20T12:00:53;21.70;73.30
59208;DHT22;44977;53.132;6.408;2023-05-20T12:05:54;21.60;72.30
59208;DHT22;44977;53.132;6.408;2023-05-20T12:10:56;21.60;73.00
59208;DHT22;44977;53.132;6.408;2023-05-20T12:15:57;21.80;73.60
59208;DHT22;44977;53.132;6.408;2023-05-20T12:20:58;21.90;73.30
59208;DHT22;44977;53.132;6.408;2023-05-20T12:25:59;21.90;71.90
59208;DHT22;44977;53.132;6.408;2023-05-20T12:31:00;21.90;73.70
59208;DHT22;44977;53.132;6.408;2023-05-20T12:36:01;21.90;71.30
59208;DHT22;44977;53.132;6.408;2023-05-20T12:41:01;21.60;72.80
59208;DHT22;44977;53.132;6.408;2023-05-20T12:46:02;21.60;74.30
59208;DHT22;44977;53.132;6.408;2023-05-20T12:51:03;21.60;73.90
59208;DHT22;44977;53.132;6.408;2023-05-20T12:56:04;21.60;72.60
59208;DHT22;44977;53.132;6.408;2023-05-20T13:01:05;21.60;74.10
59208;DHT22;44977;53.132;6.408;2023-05-20T13:06:06;21.60;74.70
59208;DHT22;44977;53.132;6.408;2023-05-20T13:11:06;21.40;74.70
59208;DHT22;44977;53.132;6.408;2023-05-20T13:16:07;21.50;76.00
59208;DHT22;44977;53.132;6.408;2023-05-20T13:21:08;21.40;75.50
59208;DHT22;44977;53.132;6.408;2023-05-20T13:26:09;21.30;75.70
59208;DHT22;44977;53.132;6.408;2023-05-20T13:31:10;21.20;76.50
59208;DHT22;44977;53.132;6.408;2023-05-20T13:36:11;21.30;76.80
59208;DHT22;44977;53.132;6.408;2023-05-20T13:41:12;21.20;74.00
59208;DHT22;44977;53.132;6.408;2023-05-20T13:46:14;21.10;75.30
59208;DHT22;44977;53.132;6.408;2023-05-20T13:51:15;20.90;77.70
59208;DHT22;44977;53.132;6.408;2023-05-20T13:56:16;20.70;77.90
59208;DHT22;44977;53.132;6.408;2023-05-20T14:01:17;20.70;78.50
59208;DHT22;44977;53.132;6.408;2023-05-20T14:06:18;20.60;79.00
59208;DHT22;44977;53.132;6.408;2023-05-20T14:11:19;20.60;79.80
59208;DHT22;44977;53.132;6.408;2023-05-20T14:16:21;20.60;81.00
59208;DHT22;44977;53.132;6.408;2023-05-20T14:21:21;20.90;81.80
59208;DHT22;44977;53.132;6.408;2023-05-20T14:26:22;20.80;81.60
59208;DHT22;44977;53.132;6.408;2023-05-20T14:31:23;20.70;80.60
59208;DHT22;44977;53.132;6.408;2023-05-20T14:36:23;20.60;81.70
59208;DHT22;44977;53.132;6.408;2023-05-20T14:41:24;20.60;80.60
59208;DHT22;44977;53.132;6.408;2023-05-20T14:46:25;20.60;81.60
59208;DHT22;44977;53.132;6.408;2023-05-20T14:51:26;20.60;79.10
59208;DHT22;44977;53.132;6.408;2023-05-20T14:56:26;20.50;79.70
59208;DHT22;44977;53.132;6.408;2023-05-20T15:01:27;20.50;79.60
59208;DHT22;44977;53.132;6.408;2023-05-20T15:06:28;20.40;79.60
59208;DHT22;44977;53.132;6.408;2023-05-20T15:11:31;20.20;79.50
59208;DHT22;44977;53.132;6.408;2023-05-20T15:16:31;20.20;81.10
59208;DHT22;44977;53.132;6.408;2023-05-20T15:21:32;20.20;81.80
59208;DHT22;44977;53.132;6.408;2023-05-20T15:26:33;20.10;79.70
59208;DHT22;44977;53.132;6.408;2023-05-20T15:31:34;19.80;79.50
59208;DHT22;44977;53.132;6.408;2023-05-20T15:36:34;19.70;79.80
59208;DHT22;44977;53.132;6.408;2023-05-20T15:41:35;19.70;80.30
59208;DHT22;44977;53.132;6.408;2023-05-20T15:46:37;19.70;79.00
59208;DHT22;44977;53.132;6.408;2023-05-20T15:51:38;19.60;79.70
59208;DHT22;44977;53.132;6.408;2023-05-20T15:56:38;19.60;80.60
59208;DHT22;44977;53.132;6.408;2023-05-20T16:01:39;19.50;80.40
59208;DHT22;44977;53.132;6.408;2023-05-20T16:06:40;19.40;80.10
59208;DHT22;44977;53.132;6.408;2023-05-20T16:11:41;19.30;80.30
59208;DHT22;44977;53.132;6.408;2023-05-20T16:16:42;19.20;80.10
59208;DHT22;44977;53.132;6.408;2023-05-20T16:21:42;19.10;80.60
59208;DHT22;44977;53.132;6.408;2023-05-20T16:26:43;19.00;80.60
59208;DHT22;44977;53.132;6.408;2023-05-20T16:31:43;19.10;80.70
59208;DHT22;44977;53.132;6.408;2023-05-20T16:36:47;19.10;78.90
59208;DHT22;44977;53.132;6.408;2023-05-20T16:41:48;19.40;80.20
59208;DHT22;44977;53.132;6.408;2023-05-20T16:46:49;19.40;76.90
59208;DHT22;44977;53.132;6.408;2023-05-20T16:51:49;19.30;77.50
59208;DHT22;44977;53.132;6.408;2023-05-20T16:56:51;19.20;77.40
59208;DHT22;44977;53.132;6.408;2023-05-20T17:01:52;19.10;76.70
59208;DHT22;44977;53.132;6.408;2023-05-20T17:06:56;19.10;78.00
59208;DHT22;44977;53.132;6.408;2023-05-20T17:11:56;19.10;77.80
59208;DHT22;44977;53.132;6.408;2023-05-20T17:17:00;19.00;78.00
59208;DHT22;44977;53.132;6.408;2023-05-20T17:22:01;19.00;78.30
59208;DHT22;44977;53.132;6.408;2023-05-20T17:27:02;18.90;78.20
59208;DHT22;44977;53.132;6.408;2023-05-20T17:32:03;18.90;78.60
59208;DHT22;44977;53.132;6.408;2023-05-20T17:37:04;18.70;77.90
59208;DHT22;44977;53.132;6.408;2023-05-20T17:42:04;18.70;78.90
59208;DHT22;44977;53.132;6.408;2023-05-20T17:47:05;18.60;78.20
59208;DHT22;44977;53.132;6.408;2023-05-20T17:52:06;18.50;78.20
59208;DHT22;44977;53.132;6.408;2023-05-20T17:57:07;18.40;79.30
59208;DHT22;44977;53.132;6.408;2023-05-20T18:02:07;18.30;80.60
59208;DHT22;44977;53.132;6.408;2023-05-20T18:07:08;18.20;81.40
59208;DHT22;44977;53.132;6.408;2023-05-20T18:12:09;18.10;82.50
59208;DHT22;44977;53.132;6.408;2023-05-20T18:17:10;18.00;83.00
59208;DHT22;44977;53.132;6.408;2023-05-20T18:22:10;18.00;83.20
59208;DHT22;44977;53.132;6.408;2023-05-20T18:27:11;17.90;83.80
59208;DHT22;44977;53.132;6.408;2023-05-20T18:32:12;17.70;84.70
59208;DHT22;44977;53.132;6.408;2023-05-20T18:37:13;17.60;85.50
59208;DHT22;44977;53.132;6.408;2023-05-20T18:42:14;17.60;86.60
59208;DHT22;44977;53.132;6.408;2023-05-20T18:47:15;17.50;87.40
59208;DHT22;44977;53.132;6.408;2023-05-20T18:52:16;17.40;88.10
59208;DHT22;44977;53.132;6.408;2023-05-20T18:57:17;17.40;88.90
59208;DHT22;44977;53.132;6.408;2023-05-20T19:02:18;17.30;89.90
59208;DHT22;44977;53.132;6.408;2023-05-20T19:07:18;17.30;90.40
59208;DHT22;44977;53.132;6.408;2023-05-20T19:12:19;17.20;91.20
59208;DHT22;44977;53.132;6.408;2023-05-20T19:17:20;17.10;91.70
59208;DHT22;44977;53.132;6.408;2023-05-20T19:22:21;17.00;92.50
59208;DHT22;44977;53.132;6.408;2023-05-20T19:27:21;17.00;93.40
59208;DHT22;44977;53.132;6.408;2023-05-20T19:32:22;16.90;94.40
59208;DHT22;44977;53.132;6.408;2023-05-20T19:37:23;16.80;95.50
59208;DHT22;44977;53.132;6.408;2023-05-20T19:42:23;16.80;96.50
59208;DHT22;44977;53.132;6.408;2023-05-20T19:47:24;16.70;97.80
59208;DHT22;44977;53.132;6.408;2023-05-20T19:52:25;16.70;99.00
59208;DHT22;44977;53.132;6.408;2023-05-20T19:57:26;16.60;99.60
59208;DHT22;44977;53.132;6.408;2023-05-20T20:02:26;16.60;99.90
59208;DHT22;44977;53.132;6.408;2023-05-20T20:07:27;16.50;99.90
59208;DHT22;44977;53.132;6.408;2023-05-20T20:12:28;16.50;99.90
59208;DHT22;44977;53.132;6.408;2023-05-20T20:17:29;16.50;99.90
59208;DHT22;44977;53.132;6.408;2023-05-20T20:22:30;16.40;99.90
59208;DHT22;44977;53.132;6.408;2023-05-20T20:27:30;16.40;99.90
59208;DHT22;44977;53.132;6.408;2023-05-20T20:32:32;16.40;99.90
59208;DHT22;44977;53.132;6.408;2023-05-20T20:37:33;16.40;99.90
59208;DHT22;44977;53.132;6.408;2023-05-20T20:42:35;16.30;99.90
59208;DHT22;44977;53.132;6.408;2023-05-20T20:47:38;16.30;99.90
59208;DHT22;44977;53.132;6.408;2023-05-20T20:52:40;16.30;99.90
59208;DHT22;44977;53.132;6.408;2023-05-20T20:57:42;16.20;99.90
59208;DHT22;44977;53.132;6.408;2023-05-20T21:02:44;16.10;99.90
59208;DHT22;44977;53.132;6.408;2023-05-20T21:07:45;16.10;99.90
59208;DHT22;44977;53.132;6.408;2023-05-20T21:12:49;16.10;99.90
59208;DHT22;44977;53.132;6.408;2023-05-20T21:17:50;16.00;99.90
59208;DHT22;44977;53.132;6.408;2023-05-20T21:22:51;15.90;99.90
59208;DHT22;44977;53.132;6.408;2023-05-20T21:27:51;15.90;99.90
59208;DHT22;44977;53.132;6.408;2023-05-20T21:32:52;15.90;99.90
59208;DHT22;44977;53.132;6.408;2023-05-20T21:37:53;15.80;99.90
59208;DHT22;44977;53.132;6.408;2023-05-20T21:42:53;15.80;99.90
59208;DHT22;44977;53.132;6.408;2023-05-20T21:47:54;15.80;99.90
59208;DHT22;44977;53.132;6.408;2023-05-20T21:52:55;15.70;99.90
59208;DHT22;44977;53.132;6.408;2023-05-20T21:57:55;15.60;99.90
59208;DHT22;44977;53.132;6.408;2023-05-20T22:02:56;15.70;99.90
59208;DHT22;44977;53.132;6.408;2023-05-20T22:07:57;15.70;99.90
59208;DHT22;44977;53.132;6.408;2023-05-20T22:12:59;15.60;99.90
59208;DHT22;44977;53.132;6.408;2023-05-20T22:18:01;15.60;99.90
59208;DHT22;44977;53.132;6.408;2023-05-20T22:23:02;15.50;99.90
59208;DHT22;44977;53.132;6.408;2023-05-20T22:28:04;15.50;99.90
59208;DHT22;44977;53.132;6.408;2023-05-20T22:33:04;15.50;99.90
59208;DHT22;44977;53.132;6.408;2023-05-20T22:38:05;15.50;99.90
59208;DHT22;44977;53.132;6.408;2023-05-20T22:43:06;15.50;99.90
59208;DHT22;44977;53.132;6.408;2023-05-20T22:48:07;15.40;99.90
59208;DHT22;44977;53.132;6.408;2023-05-20T22:53:07;15.40;99.90
59208;DHT22;44977;53.132;6.408;2023-05-20T22:58:08;15.40;99.90
59208;DHT22;44977;53.132;6.408;2023-05-20T23:03:09;15.30;99.90
59208;DHT22;44977;53.132;6.408;2023-05-20T23:08:10;15.30;99.90
59208;DHT22;44977;53.132;6.408;2023-05-20T23:13:10;15.30;99.90
59208;DHT22;44977;53.132;6.408;2023-05-20T23:18:12;15.40;99.90
59208;DHT22;44977;53.132;6.408;2023-05-20T23:23:12;15.30;99.90
59208;DHT22;44977;53.132;6.408;2023-05-20T23:28:13;15.30;99.90
59208;DHT22;44977;53.132;6.408;2023-05-20T23:33:14;15.20;99.90
59208;DHT22;44977;53.132;6.408;2023-05-20T23:38:16;15.20;99.90
59208;DHT22;44977;53.132;6.408;2023-05-20T23:43:17;15.20;99.90
59208;DHT22;44977;53.132;6.408;2023-05-20T23:48:18;15.10;99.90
59208;DHT22;44977;53.132;6.408;2023-05-20T23:53:19;15.10;99.90
59208;DHT22;44977;53.132;6.408;2023-05-20T23:58:20;15.10;99.90
